createdAt,value
2022-11-12T00:00:18.048Z,8.80
2022-11-12T00:04:19.706Z,8.90
2022-11-12T00:08:22.851Z,8.90
2022-11-12T00:12:24.619Z,8.70
2022-11-12T00:16:26.268Z,8.90
2022-11-12T00:20:28.975Z,9.00
2022-11-12T00:24:30.659Z,9.00
2022-11-12T00:28:37.301Z,8.90
2022-11-12T00:32:39.815Z,8.90
2022-11-12T00:36:42.141Z,8.70
2022-11-12T00:40:43.912Z,8.70
2022-11-12T00:44:45.944Z,8.70
2022-11-12T00:48:47.582Z,8.60
2022-11-12T00:52:51.802Z,8.60
2022-11-12T00:56:53.462Z,8.70
2022-11-12T01:00:55.148Z,8.60
2022-11-12T01:04:56.825Z,8.60
2022-11-12T01:08:58.645Z,8.50
2022-11-12T01:13:00.225Z,8.50
2022-11-12T01:17:01.911Z,8.60
2022-11-12T01:21:04.437Z,8.70
2022-11-12T01:25:06.730Z,8.80
2022-11-12T01:29:08.489Z,8.80
2022-11-12T01:33:10.165Z,8.70
2022-11-12T01:37:11.766Z,8.70
2022-11-12T01:41:22.361Z,8.70
2022-11-12T01:45:24.039Z,8.70
2022-11-12T01:49:31.608Z,8.70
2022-11-12T01:53:38.096Z,8.70
2022-11-12T01:57:43.143Z,8.70
2022-11-12T02:01:44.893Z,8.60
2022-11-12T02:09:56.386Z,8.60
2022-11-12T02:13:58.085Z,8.50
2022-11-12T02:17:59.774Z,8.40
2022-11-12T02:22:01.368Z,8.30
2022-11-12T02:26:03.019Z,8.20
2022-11-12T02:30:05.032Z,8.10
2022-11-12T02:34:06.656Z,8.00
2022-11-12T02:38:08.630Z,8.20
2022-11-12T02:42:10.302Z,8.20
2022-11-12T02:46:12.267Z,8.20
2022-11-12T02:50:13.926Z,8.20
2022-11-12T02:54:15.563Z,8.00
2022-11-12T02:58:17.143Z,8.10
2022-11-12T03:02:18.951Z,8.10
2022-11-12T03:06:20.577Z,7.90
2022-11-12T03:10:22.167Z,7.80
2022-11-12T03:14:24.214Z,7.70
2022-11-12T03:18:26.127Z,7.50
2022-11-12T03:22:27.916Z,7.50
2022-11-12T03:26:34.492Z,7.30
2022-11-12T03:30:38.402Z,7.20
2022-11-12T03:34:40.077Z,7.30
2022-11-12T03:38:42.195Z,7.30
2022-11-12T03:42:47.801Z,7.30
2022-11-12T03:46:49.375Z,7.30
2022-11-12T03:50:51.078Z,7.30
2022-11-12T03:54:52.640Z,7.30
2022-11-12T03:58:54.210Z,7.40
2022-11-12T04:02:56.127Z,7.30
2022-11-12T04:07:16.556Z,7.30
2022-11-12T04:11:18.584Z,7.30
2022-11-12T04:15:20.190Z,7.30
2022-11-12T04:19:40.569Z,7.30
2022-11-12T04:23:42.125Z,7.40
2022-11-12T04:27:43.699Z,7.40
2022-11-12T04:31:45.275Z,7.50
2022-11-12T04:35:46.883Z,7.50
2022-11-12T04:39:48.547Z,7.50
2022-11-12T04:44:08.883Z,7.50
2022-11-12T04:48:10.543Z,7.40
2022-11-12T04:52:12.137Z,7.20
2022-11-12T04:56:13.809Z,7.20
2022-11-12T05:00:15.671Z,6.90
2022-11-12T05:04:17.286Z,6.80
2022-11-12T05:08:18.927Z,6.80
2022-11-12T05:12:20.567Z,6.70
2022-11-12T05:16:22.143Z,6.80
2022-11-12T05:20:23.755Z,6.80
2022-11-12T05:24:40.937Z,6.70
2022-11-12T05:28:43.387Z,6.80
2022-11-12T05:32:44.983Z,6.70
2022-11-12T05:36:46.591Z,6.70
2022-11-12T05:40:48.233Z,6.70
2022-11-12T05:44:50.414Z,6.60
2022-11-12T05:48:52.320Z,6.60
2022-11-12T05:52:53.927Z,6.60
2022-11-12T05:56:55.528Z,6.60
2022-11-12T06:00:57.350Z,6.50
2022-11-12T06:04:59.282Z,6.50
2022-11-12T06:09:02.672Z,6.50
2022-11-12T06:13:04.317Z,6.40
2022-11-12T06:17:05.934Z,6.50
2022-11-12T06:21:27.912Z,6.50
2022-11-12T06:25:30.079Z,6.60
2022-11-12T06:29:31.731Z,6.70
2022-11-12T06:33:33.414Z,6.80
2022-11-12T06:37:35.158Z,6.90
2022-11-12T06:41:36.804Z,6.90
2022-11-12T06:45:38.414Z,6.90
2022-11-12T06:49:40.462Z,6.90
2022-11-12T06:53:42.534Z,6.90
2022-11-12T06:57:44.234Z,6.80
2022-11-12T07:01:45.889Z,6.70
2022-11-12T07:05:47.561Z,6.60
2022-11-12T07:09:49.209Z,6.50
2022-11-12T07:13:50.787Z,6.50
2022-11-12T07:17:52.701Z,6.60
2022-11-12T07:21:54.305Z,6.70
2022-11-12T07:25:57.669Z,6.70
2022-11-12T07:29:59.272Z,6.70
2022-11-12T07:34:01.024Z,6.80
2022-11-12T07:38:02.684Z,7.00
2022-11-12T07:42:04.344Z,7.20
2022-11-12T07:46:10.633Z,7.30
2022-11-12T07:50:12.687Z,7.40
2022-11-12T07:54:14.635Z,7.70
2022-11-12T07:58:18.689Z,8.00
2022-11-12T08:02:20.286Z,8.20
2022-11-12T08:06:23.886Z,8.40
2022-11-12T08:10:25.508Z,8.60
2022-11-12T08:14:27.141Z,8.80
2022-11-12T08:18:29.837Z,8.90
2022-11-12T08:22:32.097Z,9.10
2022-11-12T08:26:33.925Z,9.10
2022-11-12T08:30:35.799Z,9.20
2022-11-12T08:34:41.317Z,9.20
2022-11-12T08:38:43.185Z,9.40
2022-11-12T08:42:45.075Z,9.50
2022-11-12T08:46:46.721Z,9.70
2022-11-12T08:50:48.338Z,9.80
2022-11-12T08:54:49.922Z,10.00
2022-11-12T08:58:51.508Z,10.30
2022-11-12T09:02:53.244Z,10.50
2022-11-12T09:06:54.894Z,10.60
2022-11-12T09:10:57.803Z,10.80
2022-11-12T09:15:09.559Z,11.00
2022-11-12T09:19:21.123Z,11.20
2022-11-12T09:23:22.824Z,11.30
2022-11-12T09:27:27.613Z,11.60
2022-11-12T09:31:29.479Z,11.80
2022-11-12T09:35:31.192Z,12.00
2022-11-12T09:39:32.831Z,12.10
2022-11-12T09:43:36.837Z,12.30
2022-11-12T09:47:40.879Z,12.50
2022-11-12T09:51:50.949Z,12.50
2022-11-12T09:55:53.370Z,12.70
2022-11-12T09:59:55.147Z,12.90
2022-11-12T10:04:15.842Z,13.00
2022-11-12T10:08:36.429Z,13.20
2022-11-12T10:12:41.088Z,13.20
2022-11-12T10:16:46.109Z,13.40
2022-11-12T10:20:50.161Z,13.60
2022-11-12T10:24:51.788Z,13.80
2022-11-12T10:28:53.636Z,14.30
2022-11-12T10:32:55.826Z,14.50
2022-11-12T10:37:05.525Z,14.70
2022-11-12T10:41:26.010Z,14.60
2022-11-12T10:45:28.209Z,14.80
2022-11-12T10:49:29.795Z,14.90
2022-11-12T10:53:42.886Z,14.90
2022-11-12T10:57:45.055Z,15.10
2022-11-12T11:01:58.777Z,15.20
2022-11-12T11:06:00.588Z,15.30
2022-11-12T11:10:02.354Z,15.50
2022-11-12T11:14:27.334Z,15.40
2022-11-12T11:18:30.060Z,15.70
2022-11-12T11:22:51.403Z,15.90
2022-11-12T11:27:14.661Z,16.00
2022-11-12T11:31:25.739Z,16.10
2022-11-12T11:35:45.140Z,16.00
2022-11-12T11:40:01.577Z,16.30
2022-11-12T11:44:22.272Z,16.20
2022-11-12T11:48:43.063Z,16.30
2022-11-12T11:52:50.696Z,16.00
2022-11-12T11:56:55.934Z,16.20
2022-11-12T12:01:05.341Z,16.30
2022-11-12T12:05:29.841Z,16.20
2022-11-12T12:09:37.601Z,16.50
2022-11-12T12:13:42.381Z,16.50
2022-11-12T12:17:50.102Z,16.30
2022-11-12T12:21:52.559Z,16.40
2022-11-12T12:26:00.244Z,16.30
2022-11-12T12:30:04.757Z,16.30
2022-11-12T12:34:12.671Z,16.20
2022-11-12T12:38:20.751Z,16.20
2022-11-12T12:42:26.545Z,16.30
2022-11-12T12:46:32.019Z,16.30
2022-11-12T12:50:36.304Z,16.40
2022-11-12T12:54:38.078Z,16.20
2022-11-12T12:58:39.835Z,16.20
2022-11-12T13:02:41.565Z,16.30
2022-11-12T13:06:46.424Z,16.30
2022-11-12T13:10:49.657Z,16.30
2022-11-12T13:15:09.070Z,16.40
2022-11-12T13:19:10.874Z,16.60
2022-11-12T13:23:33.063Z,16.60
2022-11-12T13:28:05.204Z,16.40
2022-11-12T13:32:25.824Z,16.30
2022-11-12T13:36:31.043Z,16.20
2022-11-12T13:40:51.154Z,16.00
2022-11-12T13:44:56.100Z,15.90
2022-11-12T13:48:58.031Z,15.70
2022-11-12T13:52:59.896Z,15.70
2022-11-12T13:57:20.118Z,15.80
2022-11-12T14:01:23.091Z,15.80
2022-11-12T14:05:29.504Z,15.90
2022-11-12T14:09:43.937Z,15.90
2022-11-12T14:14:10.725Z,15.90
2022-11-12T14:18:12.477Z,15.90
2022-11-12T14:22:18.872Z,16.00
2022-11-12T14:26:34.504Z,15.90
2022-11-12T14:30:43.050Z,15.90
2022-11-12T14:34:44.888Z,15.90
2022-11-12T14:38:51.908Z,15.90
2022-11-12T14:42:54.066Z,15.80
2022-11-12T14:46:56.843Z,15.90
2022-11-12T14:51:03.326Z,16.00
2022-11-12T14:55:18.518Z,15.90
2022-11-12T14:59:20.453Z,15.90
2022-11-12T15:03:28.053Z,15.90
2022-11-12T15:07:32.370Z,15.60
2022-11-12T15:11:55.827Z,15.60
2022-11-12T15:16:02.617Z,15.60
2022-11-12T15:20:05.999Z,15.50
2022-11-12T15:24:13.279Z,15.40
2022-11-12T15:28:25.248Z,15.40
2022-11-12T15:32:31.146Z,15.30
2022-11-12T15:36:33.847Z,15.20
2022-11-12T15:40:57.354Z,15.10
2022-11-12T15:45:04.691Z,15.00
2022-11-12T15:49:13.561Z,14.90
2022-11-12T15:53:23.028Z,14.80
2022-11-12T15:57:35.757Z,14.60
2022-11-12T16:11:41.535Z,14.20
2022-11-12T16:15:43.576Z,13.90
2022-11-12T16:19:45.483Z,13.90
2022-11-12T16:23:48.069Z,13.80
2022-11-12T16:27:59.009Z,13.70
2022-11-12T16:32:12.230Z,13.50
2022-11-12T16:36:16.488Z,13.60
2022-11-12T16:40:31.176Z,13.60
2022-11-12T16:45:12.387Z,13.60
2022-11-12T16:49:38.252Z,13.50
2022-11-12T16:53:44.667Z,13.50
2022-11-12T16:57:55.878Z,13.50
2022-11-12T17:02:00.108Z,13.30
2022-11-12T17:06:05.808Z,13.20
2022-11-12T17:10:08.451Z,13.10
2022-11-12T17:14:12.282Z,13.10
2022-11-12T17:18:14.768Z,13.00
2022-11-12T17:22:16.788Z,13.10
2022-11-12T17:26:20.742Z,13.10
2022-11-12T17:30:26.498Z,12.90
2022-11-12T17:34:28.977Z,12.40
2022-11-12T17:38:33.811Z,12.30
2022-11-12T17:42:36.694Z,12.30
2022-11-12T17:46:46.030Z,12.20
2022-11-12T17:50:50.888Z,12.00
2022-11-12T17:54:54.171Z,12.00
2022-11-12T17:58:57.752Z,11.80
2022-11-12T18:02:59.796Z,11.80
2022-11-12T18:07:20.328Z,11.90
2022-11-12T18:11:28.106Z,11.80
2022-11-12T18:15:32.290Z,12.20
2022-11-12T18:19:38.805Z,12.30
2022-11-12T18:23:41.559Z,12.40
2022-11-12T18:27:43.614Z,12.50
2022-11-12T18:36:19.418Z,12.70
2022-11-12T18:40:29.630Z,12.60
2022-11-12T18:44:40.222Z,12.60
2022-11-12T18:48:52.184Z,12.60
2022-11-12T18:52:57.309Z,12.60
2022-11-12T18:57:00.849Z,12.50
2022-11-12T19:01:04.003Z,12.30
2022-11-12T19:05:11.057Z,12.10
2022-11-12T19:09:16.227Z,12.00
2022-11-12T19:13:18.669Z,12.10
2022-11-12T19:17:20.469Z,12.20
2022-11-12T19:21:32.747Z,12.00
2022-11-12T19:25:35.122Z,12.20
2022-11-12T19:29:37.189Z,12.10
2022-11-12T19:33:39.591Z,11.90
2022-11-12T19:37:51.185Z,12.00
2022-11-12T19:41:57.167Z,11.90
2022-11-12T19:46:08.552Z,11.80
2022-11-12T19:50:10.696Z,11.80
2022-11-12T19:54:12.500Z,11.70
2022-11-12T19:58:14.193Z,11.50
2022-11-12T20:02:16.730Z,11.60
2022-11-12T20:06:20.060Z,11.50
2022-11-12T20:10:28.210Z,11.30
2022-11-12T20:14:30.935Z,11.40
2022-11-12T20:18:32.694Z,11.60
2022-11-12T20:22:34.501Z,11.40
2022-11-12T20:26:38.551Z,11.60
2022-11-12T20:30:49.437Z,11.50
2022-11-12T20:34:54.864Z,11.60
2022-11-12T20:38:56.672Z,11.60
2022-11-12T20:42:58.343Z,11.70
2022-11-12T20:47:01.672Z,11.60
2022-11-12T20:51:23.809Z,11.70
2022-11-12T20:55:26.553Z,11.80
2022-11-12T20:59:29.386Z,11.70
2022-11-12T21:03:31.376Z,11.50
2022-11-12T21:07:33.146Z,11.50
2022-11-12T21:11:34.860Z,11.50
2022-11-12T21:15:39.159Z,11.30
2022-11-12T21:19:40.889Z,10.70
2022-11-12T21:23:46.125Z,10.20
2022-11-12T21:27:47.870Z,10.10
2022-11-12T21:31:49.504Z,10.10
2022-11-12T21:35:52.001Z,9.80
2022-11-12T21:39:53.887Z,9.80
2022-11-12T21:43:56.024Z,9.80
2022-11-12T21:48:06.507Z,9.90
2022-11-12T21:52:11.350Z,9.50
2022-11-12T21:56:14.519Z,9.40
2022-11-12T22:00:39.767Z,9.40
2022-11-12T22:04:38.380Z,9.50
2022-11-12T22:08:40.326Z,9.80
2022-11-12T22:12:53.694Z,9.30
2022-11-12T22:17:03.730Z,9.20
2022-11-12T22:21:10.852Z,9.10
2022-11-12T22:25:12.621Z,9.20
2022-11-12T22:29:14.524Z,9.20
2022-11-12T22:33:16.510Z,9.20
2022-11-12T22:37:18.267Z,9.10
2022-11-12T22:41:21.778Z,9.10
2022-11-12T22:45:25.102Z,8.90
2022-11-12T22:49:27.037Z,9.30
2022-11-12T22:53:29.087Z,9.30
2022-11-12T22:57:42.865Z,9.40
2022-11-12T23:01:46.357Z,9.50
2022-11-12T23:05:49.497Z,9.60
2022-11-12T23:10:00.214Z,9.50
2022-11-12T23:14:02.172Z,9.60
2022-11-12T23:18:03.955Z,9.50
2022-11-12T23:22:08.095Z,9.60
2022-11-12T23:26:11.244Z,9.50
2022-11-12T23:30:13.043Z,9.70
2022-11-12T23:34:14.682Z,9.30
2022-11-12T23:38:16.278Z,8.90
2022-11-12T23:42:17.848Z,9.30
2022-11-12T23:46:19.592Z,9.20
2022-11-12T23:50:21.280Z,9.40
2022-11-12T23:54:25.860Z,9.40
2022-11-12T23:58:27.949Z,9.60
